Time;durP1;ratioP1;P1;durP2;ratioP2;P2;SDS_P1;SDS_P2;PMS_P1;PMS_P2;Temp;Humidity;BMP_temperature;BMP_pressure;BME280_temperature;BME280_humidity;BME280_pressure;Samples;Min_cycle;Max_cycle;Signal;HPM_P1;HPM_P2
2021/07/03 00:01:31;;;;;;;;;;;26.00;95.10;;;;;;5126724;28;19942;-40
2021/07/03 00:03:57;;;;;;;;;;;26.00;95.00;;;;;;5108136;28;19937;-49
2021/07/03 00:06:24;;;;;;;;;;;26.00;95.00;;;;;;5126541;28;19908;-37
2021/07/03 00:08:50;;;;;;;;;;;26.00;94.90;;;;;;5126361;28;19910;-41
2021/07/03 00:11:16;;;;;;;;;;;26.00;94.90;;;;;;5126885;28;19967;-42
2021/07/03 00:13:43;;;;;;;;;;;26.00;94.90;;;;;;5126100;28;19900;-39
2021/07/03 00:16:09;;;;;;;;;;;26.00;94.80;;;;;;5126322;28;19970;-48
2021/07/03 00:18:35;;;;;;;;;;;26.00;94.80;;;;;;5125773;28;20246;-46
2021/07/03 00:21:02;;;;;;;;;;;26.00;94.80;;;;;;5107121;28;19978;-48
2021/07/03 00:23:30;;;;;;;;;;;26.00;94.90;;;;;;5125794;28;19903;-45
2021/07/03 00:25:57;;;;;;;;;;;26.00;94.90;;;;;;5107682;28;19935;-43
2021/07/03 00:28:23;;;;;;;;;;;26.00;94.90;;;;;;5107723;28;20112;-41
2021/07/03 00:30:49;;;;;;;;;;;26.00;94.90;;;;;;5126216;28;19900;-46
2021/07/03 00:33:15;;;;;;;;;;;26.00;94.80;;;;;;5107761;28;20176;-45
2021/07/03 00:35:42;;;;;;;;;;;26.00;94.80;;;;;;5107327;28;20155;-47
2021/07/03 00:38:08;;;;;;;;;;;25.90;94.80;;;;;;5125706;28;19910;-44
2021/07/03 00:40:34;;;;;;;;;;;26.00;94.80;;;;;;5125964;28;19912;-39
2021/07/03 00:43:00;;;;;;;;;;;25.90;94.80;;;;;;5125664;28;19938;-38
2021/07/03 00:45:27;;;;;;;;;;;26.00;94.90;;;;;;5107303;28;19934;-48
2021/07/03 00:47:53;;;;;;;;;;;25.90;94.80;;;;;;5107401;28;19954;-54
2021/07/03 00:50:21;;;;;;;;;;;25.90;94.70;;;;;;5125395;28;19919;-42
2021/07/03 00:52:47;;;;;;;;;;;25.90;94.70;;;;;;5125531;28;19974;-39
2021/07/03 00:55:17;;;;;;;;;;;25.90;94.60;;;;;;5107282;28;19988;-38
2021/07/03 00:57:43;;;;;;;;;;;25.90;94.50;;;;;;5125044;28;19906;-39
2021/07/03 01:00:11;;;;;;;;;;;25.90;94.50;;;;;;5125322;28;19940;-39
2021/07/03 01:02:37;;;;;;;;;;;25.90;94.60;;;;;;5107022;28;19900;-40
2021/07/03 01:05:04;;;;;;;;;;;25.90;94.60;;;;;;5125374;28;19910;-38
2021/07/03 01:07:31;;;;;;;;;;;25.90;94.70;;;;;;5125170;28;19904;-38
2021/07/03 01:09:57;;;;;;;;;;;25.90;94.70;;;;;;5125209;28;19904;-39
2021/07/03 01:12:23;;;;;;;;;;;25.90;94.70;;;;;;5125091;28;19899;-39
2021/07/03 01:14:51;;;;;;;;;;;25.90;94.80;;;;;;5125705;28;19904;-39
2021/07/03 01:17:17;;;;;;;;;;;25.90;94.70;;;;;;5125095;28;19903;-44
2021/07/03 01:19:44;;;;;;;;;;;25.90;94.70;;;;;;5125553;28;20172;-46
2021/07/03 01:22:11;;;;;;;;;;;25.90;94.70;;;;;;5125495;28;19903;-39
2021/07/03 01:24:38;;;;;;;;;;;25.90;94.80;;;;;;5125725;28;19903;-43
2021/07/03 01:27:05;;;;;;;;;;;25.90;94.80;;;;;;5125042;28;20211;-40
2021/07/03 01:29:32;;;;;;;;;;;25.90;94.80;;;;;;5124622;28;20088;-39
2021/07/03 01:31:59;;;;;;;;;;;25.90;94.70;;;;;;5106906;28;19904;-42
2021/07/03 01:34:27;;;;;;;;;;;25.90;94.70;;;;;;5125402;28;19904;-40
2021/07/03 01:36:54;;;;;;;;;;;25.90;94.70;;;;;;5124640;28;19970;-47
2021/07/03 01:39:21;;;;;;;;;;;25.90;94.80;;;;;;5125311;28;19903;-40
2021/07/03 01:41:47;;;;;;;;;;;25.90;94.80;;;;;;5124775;28;19943;-40
2021/07/03 01:44:16;;;;;;;;;;;25.90;94.80;;;;;;5125153;28;19943;-47
2021/07/03 01:46:42;;;;;;;;;;;25.90;94.80;;;;;;5106488;28;19904;-46
2021/07/03 01:49:09;;;;;;;;;;;25.90;94.80;;;;;;5125049;28;20070;-39
2021/07/03 01:51:37;;;;;;;;;;;25.80;94.80;;;;;;5124744;28;19907;-41
2021/07/03 01:54:03;;;;;;;;;;;25.90;94.80;;;;;;5125274;28;19923;-39
2021/07/03 01:56:30;;;;;;;;;;;25.90;94.80;;;;;;5106575;28;19908;-43
2021/07/03 01:58:56;;;;;;;;;;;25.80;94.70;;;;;;5124788;28;19900;-47
2021/07/03 02:01:22;;;;;;;;;;;25.90;94.70;;;;;;5124662;28;19907;-41
2021/07/03 02:03:48;;;;;;;;;;;25.80;94.70;;;;;;5124944;28;19901;-38
2021/07/03 02:06:15;;;;;;;;;;;25.80;94.80;;;;;;5124375;28;19908;-40
2021/07/03 02:08:41;;;;;;;;;;;25.80;94.70;;;;;;5105091;28;19911;-44
2021/07/03 02:11:07;;;;;;;;;;;25.80;94.70;;;;;;5116637;28;20200;-40
2021/07/03 02:13:34;;;;;;;;;;;25.80;94.90;;;;;;5109067;28;19910;-39
2021/07/03 02:16:00;;;;;;;;;;;25.70;95.00;;;;;;5124632;28;19904;-37
2021/07/03 02:18:28;;;;;;;;;;;25.70;95.10;;;;;;5118304;28;19925;-42
2021/07/03 02:20:54;;;;;;;;;;;25.60;95.20;;;;;;5107834;28;20188;-51
2021/07/03 02:23:21;;;;;;;;;;;25.60;95.30;;;;;;5104249;28;19961;-39
2021/07/03 02:25:47;;;;;;;;;;;25.50;95.40;;;;;;5103905;28;19949;-41
2021/07/03 02:28:14;;;;;;;;;;;25.50;95.50;;;;;;5103897;28;19966;-37
2021/07/03 02:30:40;;;;;;;;;;;25.50;95.40;;;;;;5103921;28;20100;-38
2021/07/03 02:33:06;;;;;;;;;;;25.60;95.20;;;;;;5103484;28;19935;-44
2021/07/03 02:35:33;;;;;;;;;;;25.70;95.00;;;;;;5103013;28;19904;-47
2021/07/03 02:37:59;;;;;;;;;;;25.70;94.90;;;;;;5103724;28;19961;-45
2021/07/03 02:40:26;;;;;;;;;;;25.70;94.90;;;;;;5104977;28;19923;-40
2021/07/03 02:42:52;;;;;;;;;;;25.80;95.00;;;;;;5089291;28;20184;-43
2021/07/03 02:45:18;;;;;;;;;;;25.80;94.90;;;;;;5106987;28;19931;-41
2021/07/03 02:47:45;;;;;;;;;;;25.80;94.80;;;;;;5107558;28;19916;-41
2021/07/03 02:50:17;;;;;;;;;;;25.80;94.80;;;;;;5127208;28;20104;-40
2021/07/03 02:52:43;;;;;;;;;;;25.80;94.80;;;;;;5127296;28;19919;-50
2021/07/03 02:55:10;;;;;;;;;;;25.80;94.80;;;;;;5127172;28;19903;-47
2021/07/03 02:57:37;;;;;;;;;;;25.80;94.80;;;;;;5124348;27;20184;-45
2021/07/03 03:00:05;;;;;;;;;;;25.70;94.80;;;;;;5107234;28;19975;-41
2021/07/03 03:02:32;;;;;;;;;;;25.70;94.90;;;;;;5107159;28;19967;-42
2021/07/03 03:04:58;;;;;;;;;;;25.70;94.90;;;;;;5107049;28;19914;-40
2021/07/03 03:07:24;;;;;;;;;;;25.70;95.00;;;;;;5106815;28;19904;-44
2021/07/03 03:09:50;;;;;;;;;;;25.70;95.00;;;;;;5106918;28;19908;-43
2021/07/03 03:12:17;;;;;;;;;;;25.70;94.90;;;;;;5088764;28;19900;-39
2021/07/03 03:14:43;;;;;;;;;;;25.70;94.70;;;;;;5088512;28;19900;-46
2021/07/03 03:17:09;;;;;;;;;;;25.70;94.70;;;;;;5106815;28;19908;-38
2021/07/03 03:19:36;;;;;;;5.40;3.00;;;25.70;94.70;;;;;;5088474;28;20100;-41
2021/07/03 03:22:03;;;;;;;6.10;2.90;;;25.90;94.50;;;;;;5105959;28;20056;-38
2021/07/03 03:24:29;;;;;;;6.55;3.28;;;26.00;94.40;;;;;;5106290;28;20019;-47
2021/07/03 03:26:56;;;;;;;8.75;2.67;;;26.10;94.20;;;;;;5088228;28;20024;-40
2021/07/03 03:29:23;;;;;;;6.75;2.95;;;26.10;93.90;;;;;;5106413;28;20168;-42
2021/07/03 03:31:49;;;;;;;5.43;3.22;;;26.10;93.90;;;;;;5106202;28;20040;-39
2021/07/03 03:34:16;;;;;;;7.35;4.18;;;26.20;94.00;;;;;;5106440;28;20012;-42
2021/07/03 03:36:43;;;;;;;8.98;3.85;;;26.20;94.00;;;;;;5105875;28;20020;-39
2021/07/03 03:39:09;;;;;;;7.25;4.13;;;26.20;94.00;;;;;;5105956;28;20027;-41
2021/07/03 03:41:36;;;;;;;8.63;4.90;;;26.20;93.90;;;;;;5105766;28;20063;-41
2021/07/03 03:44:03;;;;;;;12.07;4.88;;;26.20;93.90;;;;;;5106124;28;20054;-42
2021/07/03 03:46:30;;;;;;;12.73;5.32;;;26.20;93.80;;;;;;5105907;28;20308;-43
2021/07/03 03:48:56;;;;;;;10.07;5.13;;;26.20;93.90;;;;;;5106100;28;20097;-39
2021/07/03 03:51:23;;;;;;;12.60;5.43;;;26.20;94.00;;;;;;5105177;28;20172;-42
2021/07/03 03:53:50;;;;;;;9.30;5.47;;;26.20;94.00;;;;;;5105734;28;20023;-40
2021/07/03 03:56:17;;;;;;;11.07;5.05;;;26.10;94.00;;;;;;5105894;28;20035;-42
2021/07/03 03:58:43;;;;;;;11.15;6.20;;;26.10;94.10;;;;;;5105844;28;20024;-43
2021/07/03 04:01:10;;;;;;;17.25;8.07;;;26.10;94.10;;;;;;5087713;28;20058;-51
2021/07/03 04:03:37;;;;;;;12.27;7.88;;;26.10;94.10;;;;;;5105935;28;20032;-41
2021/07/03 04:06:03;;;;;;;16.38;8.77;;;26.00;94.10;;;;;;5095168;28;20027;-39
2021/07/03 04:08:30;;;;;;;11.65;5.60;;;26.00;94.10;;;;;;5109167;28;20027;-42
2021/07/03 04:10:57;;;;;;;11.70;6.20;;;26.00;94.10;;;;;;5105405;28;20024;-47
2021/07/03 04:13:24;;;;;;;10.00;6.32;;;26.00;94.20;;;;;;5105225;28;20223;-43
2021/07/03 04:15:50;;;;;;;18.83;7.55;;;26.00;94.20;;;;;;5105262;28;20066;-43
2021/07/03 04:18:17;;;;;;;11.18;6.10;;;26.00;94.20;;;;;;5087320;28;20042;-42
2021/07/03 04:20:44;;;;;;;11.90;6.40;;;26.00;94.30;;;;;;5087165;28;20020;-43
2021/07/03 04:23:10;;;;;;;10.05;4.72;;;25.90;94.20;;;;;;5105194;28;20363;-40
2021/07/03 04:25:37;;;;;;;10.43;4.03;;;26.00;94.30;;;;;;5105250;28;20027;-39
2021/07/03 04:28:04;;;;;;;6.40;4.32;;;25.90;94.30;;;;;;5105349;28;20024;-37
2021/07/03 04:30:31;;;;;;;8.73;3.97;;;25.90;94.30;;;;;;5105322;28;20324;-40
2021/07/03 04:32:57;;;;;;;8.75;3.83;;;25.90;94.30;;;;;;5105069;28;20319;-41
2021/07/03 04:35:24;;;;;;;7.95;3.78;;;25.90;94.40;;;;;;5105023;28;20087;-39
2021/07/03 04:37:51;;;;;;;6.93;3.45;;;25.90;94.40;;;;;;5105090;28;20182;-39
2021/07/03 04:40:17;;;;;;;7.82;3.38;;;25.90;94.40;;;;;;5104664;28;20371;-46
2021/07/03 04:42:50;;;;;;;6.32;3.13;;;25.90;94.40;;;;;;5104891;28;20079;-40
2021/07/03 04:45:16;;;;;;;;;;;25.90;94.40;;;;;;5105089;28;20216;-40
2021/07/03 04:47:45;;;;;;;4.35;2.80;;;25.90;94.40;;;;;;5104699;28;19904;-41
2021/07/03 04:50:13;;;;;;;11.30;3.00;;;25.90;94.40;;;;;;5104720;28;20012;-43
2021/07/03 04:52:40;;;;;;;5.78;2.83;;;25.90;94.70;;;;;;5104416;28;20012;-42
2021/07/03 04:55:08;;;;;;;5.55;3.00;;;25.80;94.40;;;;;;5086885;28;20377;-40
2021/07/03 04:57:37;;;;;;;7.22;2.85;;;25.90;94.40;;;;;;5086402;28;20027;-41
2021/07/03 05:00:06;;;;;;;10.43;3.22;;;25.90;94.40;;;;;;5104506;28;20020;-45
2021/07/03 05:02:32;;;;;;;8.48;3.03;;;25.90;94.40;;;;;;5104434;28;20012;-46
2021/07/03 05:05:00;;;;;;;4.57;2.70;;;25.80;94.30;;;;;;5103687;28;20012;-41
2021/07/03 05:07:26;;;;;;;9.07;2.97;;;25.80;94.40;;;;;;5104399;28;20024;-39
2021/07/03 05:09:53;;;;;;;7.32;2.90;;;25.80;94.40;;;;;;5104422;28;20020;-38
2021/07/03 05:12:20;;;;;;;9.95;2.83;;;25.80;94.50;;;;;;5104184;28;20012;-41
2021/07/03 05:14:49;;;;;;;8.13;2.60;;;25.80;94.40;;;;;;5104508;28;20035;-40
2021/07/03 05:17:16;;;;;;;6.63;2.60;;;25.70;94.40;;;;;;5104371;28;20261;-45
2021/07/03 05:19:42;;;;;;;7.63;2.85;;;25.70;94.40;;;;;;5104774;28;20020;-45
2021/07/03 05:22:09;;;;;;;7.22;2.70;;;25.70;94.70;;;;;;5104078;28;20058;-46
2021/07/03 05:24:36;;;;;;;7.78;2.38;;;25.70;94.50;;;;;;5104155;28;20022;-44
2021/07/03 05:27:02;;;;;;;;;;;25.70;94.50;;;;;;5104546;28;20020;-39
2021/07/03 05:29:29;;;;;;;;;;;25.60;94.60;;;;;;5104684;28;19908;-37
2021/07/03 05:31:55;;;;;;;;;;;25.70;94.60;;;;;;5086476;28;19904;-41
2021/07/03 05:34:21;;;;;;;;;;;25.70;94.70;;;;;;5104877;28;19967;-41
2021/07/03 05:36:49;;;;;;;;;;;25.60;94.70;;;;;;5104294;28;20153;-44
2021/07/03 05:39:17;;;;;;;;;;;25.60;94.70;;;;;;5104339;28;19904;-43
2021/07/03 05:41:44;;;;;;;;;;;25.60;94.70;;;;;;5104267;28;19947;-43
2021/07/03 05:44:10;;;;;;;;;;;25.70;94.70;;;;;;5104580;28;19927;-43
2021/07/03 05:46:39;;;;;;;;;;;25.60;94.60;;;;;;5104218;28;19904;-42
2021/07/03 05:49:05;;;;;;;;;;;25.60;94.60;;;;;;5104692;28;19951;-42
2021/07/03 05:51:31;;;;;;;;;;;25.60;94.60;;;;;;5104197;28;19935;-47
2021/07/03 05:53:58;;;;;;;;;;;25.60;94.60;;;;;;5104423;28;20139;-39
2021/07/03 05:56:28;;;;;;;;;;;25.60;94.60;;;;;;5104375;28;19911;-38
2021/07/03 05:58:55;;;;;;;;;;;25.60;94.60;;;;;;5104435;28;19935;-39
2021/07/03 06:01:22;;;;;;;;;;;25.50;94.60;;;;;;5104315;28;20193;-39
2021/07/03 06:03:48;;;;;;;;;;;25.50;94.70;;;;;;5104532;28;20084;-39
2021/07/03 06:06:14;;;;;;;;;;;25.50;94.70;;;;;;5086083;28;20130;-47
2021/07/03 06:08:41;;;;;;;;;;;25.50;94.60;;;;;;5085960;28;20202;-44
2021/07/03 06:11:07;;;;;;;;;;;25.50;94.70;;;;;;5104183;28;19904;-40
2021/07/03 06:13:35;;;;;;;;;;;25.50;94.70;;;;;;5104282;28;20198;-40
2021/07/03 06:16:01;;;;;;;;;;;25.50;94.70;;;;;;5106719;28;20132;-43
2021/07/03 06:18:27;;;;;;;;;;;25.50;94.60;;;;;;5108342;28;20088;-39
2021/07/03 06:20:57;;;;;;;;;;;25.50;94.70;;;;;;5107878;28;19911;-45
2021/07/03 06:23:26;;;;;;;;;;;25.50;94.70;;;;;;5107975;28;20196;-41
2021/07/03 06:25:59;;;;;;;;;;;25.50;94.60;;;;;;5107965;28;19904;-42
2021/07/03 06:28:26;;;;;;;;;;;25.50;94.60;;;;;;5107866;28;19908;-42
2021/07/03 06:30:53;;;;;;;;;;;25.50;94.60;;;;;;5107927;28;19904;-45
2021/07/03 06:33:19;;;;;;;;;;;25.40;94.60;;;;;;5108008;28;19904;-39
2021/07/03 06:35:46;;;;;;;;;;;25.50;94.60;;;;;;5107613;28;19904;-40
2021/07/03 06:38:12;;;;;;;;;;;25.50;94.60;;;;;;5107905;28;20085;-41
2021/07/03 06:40:38;;;;;;;;;;;25.40;94.60;;;;;;5107500;28;19916;-41
2021/07/03 06:43:04;;;;;;;;;;;25.40;94.70;;;;;;5107566;28;19904;-42
2021/07/03 06:45:30;;;;;;;;;;;25.40;94.60;;;;;;5107674;28;20250;-46
2021/07/03 06:47:57;;;;;;;;;;;25.40;94.70;;;;;;5107552;28;20092;-39
2021/07/03 06:50:23;;;;;;;;;;;25.40;94.70;;;;;;5107347;28;19904;-42
2021/07/03 06:52:49;;;;;;;;;;;25.40;94.80;;;;;;5107410;28;19911;-44
2021/07/03 06:55:15;;;;;;;;;;;25.30;94.80;;;;;;5107380;28;19926;-42
2021/07/03 06:57:42;;;;;;;;;;;25.40;94.80;;;;;;5107238;28;19907;-42
2021/07/03 07:00:08;;;;;;;;;;;25.40;94.80;;;;;;5107261;28;19975;-53
2021/07/03 07:02:34;;;;;;;;;;;25.40;94.90;;;;;;5107460;28;19907;-40
2021/07/03 07:05:01;;;;;;;;;;;25.30;94.80;;;;;;5107177;28;20160;-38
2021/07/03 07:07:27;;;;;;;;;;;25.30;94.70;;;;;;5107079;28;19953;-41
2021/07/03 07:09:53;;;;;;;;;;;25.30;94.70;;;;;;5107451;28;19904;-42
2021/07/03 07:12:19;;;;;;;;;;;25.30;94.60;;;;;;5107028;28;19900;-40
2021/07/03 07:14:45;;;;;;;;;;;25.30;94.90;;;;;;5107255;28;19915;-42
2021/07/03 07:17:12;;;;;;;;;;;25.30;94.60;;;;;;5107122;28;19904;-40
2021/07/03 07:19:38;;;;;;;;;;;25.30;94.60;;;;;;5107281;28;20176;-49
2021/07/03 07:22:04;;;;;;;;;;;25.30;94.70;;;;;;5106743;28;19904;-43
2021/07/03 07:24:30;;;;;;;;;;;25.30;94.70;;;;;;5107378;28;20010;-41
2021/07/03 07:26:57;;;;;;;;;;;25.30;94.70;;;;;;5105948;28;20132;-40
2021/07/03 07:29:23;;;;;;;;;;;25.30;94.70;;;;;;5106944;28;19945;-43
2021/07/03 07:31:49;;;;;;;;;;;25.30;94.70;;;;;;5106731;28;19970;-43
2021/07/03 07:34:16;;;;;;;;;;;25.30;94.70;;;;;;5106905;28;19971;-44
2021/07/03 07:36:42;;;;;;;;;;;25.30;94.80;;;;;;5106516;28;19931;-40
2021/07/03 07:39:08;;;;;;;;;;;25.30;94.80;;;;;;5107001;28;19903;-44
2021/07/03 07:41:35;;;;;;;;;;;25.30;94.80;;;;;;5106328;28;19916;-51
2021/07/03 07:44:01;;;;;;;;;;;25.30;94.80;;;;;;5106694;28;19911;-41
2021/07/03 07:46:27;;;;;;;;;;;25.30;94.80;;;;;;5106531;28;20121;-41
2021/07/03 07:48:56;;;;;;;;;;;25.30;94.80;;;;;;5106608;28;19965;-39
2021/07/03 07:51:22;;;;;;;;;;;25.20;94.80;;;;;;5106072;28;19949;-47
2021/07/03 07:53:48;;;;;;;;;;;25.30;94.80;;;;;;5106553;28;20268;-43
2021/07/03 07:56:18;;;;;;;;;;;25.30;94.80;;;;;;5106192;28;19908;-43
2021/07/03 07:58:45;;;;;;;;;;;25.20;94.70;;;;;;5106182;28;19908;-39
2021/07/03 08:01:13;;;;;;;;;;;25.20;94.80;;;;;;5106291;28;20223;-42
2021/07/03 08:03:40;;;;;;;;;;;25.20;94.80;;;;;;5106257;28;19900;-40
2021/07/03 08:06:06;;;;;;;;;;;25.20;94.70;;;;;;5105896;28;19979;-47
2021/07/03 08:08:32;;;;;;;;;;;25.20;94.70;;;;;;5106028;28;19904;-48
2021/07/03 08:10:58;;;;;;;;;;;25.20;94.80;;;;;;5105991;28;19908;-42
2021/07/03 08:13:25;;;;;;;;;;;25.20;94.70;;;;;;5105928;28;19900;-43
2021/07/03 08:15:51;;;;;;;;;;;25.20;94.80;;;;;;5105870;28;20135;-45
2021/07/03 08:18:20;;;;;;;;;;;25.20;94.70;;;;;;5105868;28;19908;-45
2021/07/03 08:20:46;;;;;;;;;;;25.20;94.70;;;;;;5105622;28;20192;-39
2021/07/03 08:23:13;;;;;;;;;;;25.20;94.60;;;;;;5105811;28;19929;-42
2021/07/03 08:25:39;;;;;;;;;;;25.20;94.60;;;;;;5105618;28;19908;-44
2021/07/03 08:28:05;;;;;;;;;;;25.20;94.60;;;;;;5105592;28;19904;-45
2021/07/03 08:30:33;;;;;;;;;;;25.20;94.60;;;;;;5105453;28;19908;-41
2021/07/03 08:33:00;;;;;;;;;;;25.20;94.60;;;;;;5105512;28;20140;-42
2021/07/03 08:35:26;;;;;;;;;;;25.10;94.50;;;;;;5105491;28;19998;-42
2021/07/03 08:37:52;;;;;;;;;;;25.20;94.60;;;;;;5105266;28;19900;-40
2021/07/03 08:40:19;;;;;;;;;;;25.10;94.60;;;;;;5105349;28;19950;-41
2021/07/03 08:42:45;;;;;;;;;;;25.10;94.70;;;;;;5105292;28;19923;-47
2021/07/03 10:25:16;;;;;;;;;;;24.80;95.30;;;;;;5068538;27;20112;-37
2021/07/03 10:27:56;;;;;;;;;;;25.50;93.80;;;;;;5066751;28;19920;-38
2021/07/03 10:30:26;;;;;;;;;;;25.50;93.90;;;;;;5067046;28;19908;-39
2021/07/03 10:33:15;;;;;;;;;;;25.50;94.00;;;;;;5066800;28;20109;-35
2021/07/03 10:35:43;;;;;;;;;;;25.40;94.10;;;;;;5061403;28;19904;-39
2021/07/03 10:38:26;;;;;;;;;;;25.40;94.10;;;;;;5066741;28;19913;-34
2021/07/03 10:40:54;;;;;;;;;;;25.40;94.20;;;;;;5066874;28;19943;-38
2021/07/03 10:43:23;;;;;;;;;;;25.40;94.20;;;;;;5066711;28;19913;-37
2021/07/03 10:45:54;;;;;;;;;;;25.30;94.30;;;;;;5066625;28;19911;-36
2021/07/03 10:48:21;;;;;;;;;;;25.30;94.30;;;;;;5066877;28;19940;-36
2021/07/03 10:50:49;;;;;;;;;;;25.30;94.40;;;;;;5066302;28;19932;-37
2021/07/03 10:53:19;;;;;;;;;;;25.30;94.40;;;;;;5066650;28;19912;-39
2021/07/03 10:55:45;;;;;;;;;;;25.30;94.40;;;;;;5066723;28;19905;-36
2021/07/03 10:58:17;;;;;;;;;;;25.30;94.40;;;;;;5066392;28;19913;-37
2021/07/03 11:00:44;;;;;;;;;;;25.20;94.30;;;;;;5066446;28;19972;-38
2021/07/03 11:03:19;;;;;;;;;;;25.20;94.40;;;;;;5066452;28;19936;-40
2021/07/03 11:05:45;;;;;;;;;;;25.20;94.40;;;;;;5066301;28;19905;-36
2021/07/03 11:08:12;;;;;;;;;;;25.20;94.40;;;;;;5066498;28;20247;-38
2021/07/03 11:10:42;;;;;;;;;;;25.20;94.40;;;;;;5065957;28;19915;-39
2021/07/03 11:13:17;;;;;;;;;;;25.20;94.40;;;;;;5066483;28;19919;-38
2021/07/03 11:15:44;;;;;;;;;;;25.20;94.40;;;;;;5066163;28;19911;-37
2021/07/03 11:18:10;;;;;;;;;;;25.20;94.40;;;;;;5064858;28;19920;-41
2021/07/03 11:20:40;;;;;;;;;;;25.20;94.40;;;;;;5066045;28;20185;-38
2021/07/03 11:23:06;;;;;;;;;;;25.10;94.50;;;;;;5065790;28;20204;-39
2021/07/03 11:25:37;;;;;;;;;;;25.10;94.50;;;;;;5066085;28;19936;-39
2021/07/03 11:28:04;;;;;;;;;;;25.10;94.50;;;;;;5065831;28;19913;-41
2021/07/03 11:30:31;;;;;;;;;;;25.10;94.50;;;;;;5065738;28;19931;-40
2021/07/03 11:32:57;;;;;;;;;;;25.10;94.60;;;;;;5065264;28;20204;-38
2021/07/03 11:35:25;;;;;;;;;;;25.10;94.60;;;;;;5065314;28;19905;-40
2021/07/03 11:37:52;;;;;;;;;;;25.10;94.60;;;;;;5065757;28;19920;-39
2021/07/03 11:40:20;;;;;;;;;;;25.10;94.60;;;;;;5066033;28;20097;-38
2021/07/03 11:42:47;;;;;;;;;;;25.10;94.60;;;;;;5065625;28;19912;-40
2021/07/03 11:45:15;;;;;;;;;;;25.20;94.70;;;;;;5065596;28;19905;-38
2021/07/03 11:47:42;;;;;;;;;;;25.10;94.60;;;;;;5065374;28;19941;-38
2021/07/03 11:50:26;;;;;;;;;;;25.10;94.60;;;;;;5065385;28;19918;-39
2021/07/03 11:52:53;;;;;;;;;;;25.10;94.60;;;;;;5065318;28;19980;-39
2021/07/03 11:55:21;;;;;;;;;;;25.10;94.60;;;;;;5065352;28;19936;-41
2021/07/03 11:57:48;;;;;;;;;;;25.10;94.60;;;;;;5065331;28;19936;-37
2021/07/03 12:00:18;;;;;;;;;;;25.10;94.50;;;;;;5065203;28;19928;-42
2021/07/03 12:02:44;;;;;;;;;;;25.10;94.50;;;;;;5065203;28;19932;-41
2021/07/03 12:05:11;;;;;;;;;;;25.10;94.80;;;;;;5065147;28;19911;-41
2021/07/03 12:07:38;;;;;;;;;;;25.10;94.50;;;;;;5065002;28;20232;-38
2021/07/03 12:10:06;;;;;;;;;;;25.10;94.60;;;;;;5065083;28;19908;-38
2021/07/03 12:12:32;;;;;;;;;;;25.10;94.50;;;;;;5064885;28;20008;-38
2021/07/03 12:14:59;;;;;;;;;;;25.20;94.50;;;;;;5064890;28;20002;-43
2021/07/03 12:17:26;;;;;;;;;;;25.10;94.50;;;;;;5064869;28;19950;-42
2021/07/03 12:20:02;;;;;;;;;;;25.10;94.50;;;;;;5064954;28;19911;-38
2021/07/03 12:22:29;;;;;;;;;;;25.10;94.50;;;;;;5064679;28;19940;-41
2021/07/03 12:24:55;;;;;;;;;;;25.10;94.60;;;;;;5064719;28;19916;-39
2021/07/03 12:27:24;;;;;;;;;;;25.10;94.60;;;;;;5064728;28;19936;-35
2021/07/03 12:29:50;;;;;;;;;;;25.10;94.60;;;;;;5064485;28;19924;-37
2021/07/03 12:32:17;;;;;;;;;;;25.10;94.60;;;;;;5064694;28;19994;-38
2021/07/03 12:34:43;;;;;;;;;;;25.10;94.60;;;;;;5065012;28;19935;-39
2021/07/03 12:37:12;;;;;;;;;;;25.10;94.70;;;;;;5064346;28;19905;-43
2021/07/03 12:39:41;;;;;;;;;;;25.10;94.70;;;;;;5065036;28;19912;-37
2021/07/03 12:42:09;;;;;;;;;;;25.10;94.70;;;;;;5064463;28;20155;-37
2021/07/03 12:44:42;;;;;;;;;;;25.10;94.70;;;;;;5064662;28;19913;-39
2021/07/03 12:47:12;;;;;;;;;;;25.10;94.70;;;;;;5064725;28;19905;-38
2021/07/03 12:49:42;;;;;;;;;;;25.20;94.70;;;;;;5064666;28;20105;-39
2021/07/03 12:52:09;;;;;;;;;;;25.20;94.80;;;;;;5064487;28;19905;-37
2021/07/03 12:54:35;;;;;;;;;;;25.10;94.80;;;;;;5064823;28;19917;-38
2021/07/03 12:57:02;;;;;;;;;;;25.10;94.90;;;;;;5064226;28;20104;-42
2021/07/03 12:59:33;;;;;;;;;;;25.10;95.00;;;;;;5064292;28;19913;-37
2021/07/03 13:02:10;;;;;;;;;;;25.10;94.90;;;;;;5064376;28;20192;-38
2021/07/03 13:04:36;;;;;;;;;;;25.10;94.90;;;;;;5064686;28;19913;-40
2021/07/03 13:07:06;;;;;;;;;;;25.10;94.90;;;;;;5064209;28;19995;-42
2021/07/03 13:09:32;;;;;;;;;;;25.10;95.00;;;;;;5064507;28;19913;-36
2021/07/03 13:11:59;;;;;;;;;;;25.10;95.00;;;;;;5064137;28;20339;-40
2021/07/03 13:14:25;;;;;;;;;;;25.10;95.30;;;;;;5064662;28;19919;-36
2021/07/03 13:16:51;;;;;;;;;;;25.10;95.00;;;;;;5064438;28;19932;-37
2021/07/03 14:53:14;;;;;;;;;;;25.50;94.60;;;;;;5127674;27;19918;-38
2021/07/03 14:55:40;;;;;;;;;;;25.60;94.30;;;;;;5101328;28;19919;-40
2021/07/03 14:58:09;;;;;;;;;;;25.50;94.30;;;;;;5101117;28;19979;-50
2021/07/03 15:00:35;;;;;;;;;;;25.50;94.80;;;;;;5101080;28;19912;-39
2021/07/03 15:03:01;;;;;;;;;;;25.50;94.90;;;;;;5101103;28;19916;-49
2021/07/03 15:05:28;;;;;;;;;;;25.50;95.10;;;;;;5101010;28;20198;-46
2021/07/03 15:07:54;;;;;;;;;;;25.50;95.10;;;;;;5100955;28;19954;-38
2021/07/03 15:10:20;;;;;;;;;;;25.40;95.10;;;;;;5100971;28;19904;-42
2021/07/03 15:12:46;;;;;;;;;;;25.40;94.90;;;;;;5100990;28;20096;-40
2021/07/03 15:15:13;;;;;;;;;;;25.40;95.20;;;;;;5101089;28;19927;-50
2021/07/03 15:17:39;;;;;;;;;;;25.40;94.80;;;;;;5101351;28;19908;-48
2021/07/03 15:20:06;;;;;;;;;;;25.40;94.90;;;;;;5101065;28;19905;-36
2021/07/03 15:22:32;;;;;;;;;;;25.50;94.70;;;;;;5101066;28;19916;-39
2021/07/03 15:24:58;;;;;;;;;;;25.50;94.40;;;;;;5101204;28;19904;-52
2021/07/03 15:27:25;;;;;;;;;;;25.50;94.20;;;;;;5101540;28;20077;-46
2021/07/03 15:29:51;;;;;;;;;;;25.50;93.80;;;;;;5100865;28;19946;-44
2021/07/03 15:32:17;;;;;;;;;;;25.50;93.90;;;;;;5101522;28;19912;-47
2021/07/03 15:34:44;;;;;;;;;;;25.50;93.70;;;;;;5100985;28;19908;-40
2021/07/03 15:37:10;;;;;;;;;;;25.50;93.80;;;;;;5101218;28;19951;-40
2021/07/03 15:39:36;;;;;;;;;;;25.50;94.20;;;;;;5100801;28;20302;-38
2021/07/03 15:42:03;;;;;;;;;;;25.50;94.10;;;;;;5100876;28;20237;-46
2021/07/03 15:44:29;;;;;;;;;;;25.60;94.30;;;;;;5100680;28;19935;-43
2021/07/03 15:46:55;;;;;;;;;;;25.60;93.70;;;;;;5101132;28;19955;-47
2021/07/03 15:49:21;;;;;;;;;;;25.60;93.70;;;;;;5099588;28;19919;-48
2021/07/03 15:51:48;;;;;;;;;;;25.60;93.60;;;;;;5098996;28;19920;-48
2021/07/03 15:54:14;;;;;;;;;;;25.70;93.70;;;;;;5086793;28;20116;-37
2021/07/03 15:56:40;;;;;;;;;;;25.70;93.70;;;;;;5086964;28;19912;-38
2021/07/03 15:59:07;;;;;;;;;;;25.70;93.50;;;;;;5086036;28;19904;-40
2021/07/03 16:01:33;;;;;;;;;;;25.70;93.40;;;;;;5086854;28;19935;-40
2021/07/03 16:04:02;;;;;;;;;;;25.80;93.40;;;;;;5087094;28;20100;-52
2021/07/03 16:06:28;;;;;;;;;;;25.80;93.50;;;;;;5087350;28;19912;-42
2021/07/03 16:08:54;;;;;;;;;;;25.80;92.90;;;;;;5086947;28;19904;-41
2021/07/03 16:11:20;;;;;;;;;;;25.90;93.00;;;;;;5087166;28;20246;-48
2021/07/03 16:13:47;;;;;;;;;;;25.90;92.90;;;;;;5085545;28;19910;-49
2021/07/03 16:16:13;;;;;;;;;;;25.90;93.00;;;;;;5086610;28;19953;-42
2021/07/03 16:18:39;;;;;;;;;;;26.00;93.10;;;;;;5085423;28;20143;-43
2021/07/03 16:21:05;;;;;;;;;;;26.00;93.20;;;;;;5086441;28;19916;-39
2021/07/03 16:23:32;;;;;;;;;;;26.10;92.90;;;;;;5086399;28;19946;-44
2021/07/03 16:25:58;;;;;;;;;;;26.10;92.90;;;;;;5085134;28;19912;-46
2021/07/03 16:28:24;;;;;;;;;;;26.10;92.60;;;;;;5086469;28;19936;-37
2021/07/03 16:30:51;;;;;;;;;;;26.10;93.10;;;;;;5086466;28;19958;-41
2021/07/03 16:33:17;;;;;;;;;;;26.20;93.20;;;;;;5086107;28;19905;-41
2021/07/03 16:35:46;;;;;;;;;;;26.20;93.40;;;;;;5085314;28;20184;-46
2021/07/03 16:38:12;;;;;;;;;;;26.20;94.00;;;;;;5085703;28;19905;-42
2021/07/03 16:40:38;;;;;;;;;;;26.20;94.40;;;;;;5085053;28;19939;-46
2021/07/03 16:43:04;;;;;;;;;;;26.10;94.20;;;;;;5086236;28;19912;-43
2021/07/03 16:45:31;;;;;;;;;;;26.10;94.30;;;;;;5084892;28;20253;-41
2021/07/03 16:47:57;;;;;;;;;;;26.10;94.30;;;;;;5085025;28;19942;-37
2021/07/03 16:50:23;;;;;;;;;;;26.10;94.00;;;;;;5085136;28;19921;-41
2021/07/03 16:52:49;;;;;;;;;;;26.10;94.10;;;;;;5083924;28;19959;-40
2021/07/03 16:55:16;;;;;;;;;;;26.10;94.30;;;;;;5085370;28;19904;-42
2021/07/03 16:57:42;;;;;;;;;;;26.10;94.50;;;;;;5085213;28;19912;-43
2021/07/03 17:00:08;;;;;;;;;;;26.10;94.50;;;;;;5081942;28;19936;-50
2021/07/03 17:02:35;;;;;;;;;;;26.10;94.60;;;;;;5084415;28;19904;-40
2021/07/03 17:05:01;;;;;;;;;;;26.10;94.60;;;;;;5083782;28;20212;-39
2021/07/03 17:07:27;;;;;;;;;;;26.10;94.60;;;;;;5083655;28;20223;-51
2021/07/03 17:09:54;;;;;;;;;;;26.10;94.60;;;;;;5084703;28;19905;-41
2021/07/03 17:12:20;;;;;;;;;;;26.10;94.70;;;;;;5085439;28;19912;-42
2021/07/03 17:14:46;;;;;;;;;;;26.30;94.40;;;;;;5084868;28;19904;-44